createdAt,value
2019-03-12T00:02:17.022Z,96539.31
2019-03-12T00:04:48.802Z,96537.55
2019-03-12T00:07:20.605Z,96526.69
2019-03-12T00:09:53.817Z,96524.55
2019-03-12T00:12:25.929Z,96521.39
2019-03-12T00:14:57.747Z,96512.45
2019-03-12T00:17:29.431Z,96514.52
2019-03-12T00:20:01.045Z,96512.98
2019-03-12T00:22:34.653Z,96509.06
2019-03-12T00:25:06.571Z,96508.70
2019-03-12T00:27:38.345Z,96507.13
2019-03-12T00:30:10.325Z,96503.99
2019-03-12T00:32:42.050Z,96506.16
2019-03-12T00:35:13.806Z,96501.97
2019-03-12T00:37:45.450Z,96505.56
2019-03-12T00:40:17.183Z,96509.75
2019-03-12T00:42:48.780Z,96510.70
2019-03-12T00:45:20.449Z,96509.33
2019-03-12T00:47:52.154Z,96511.19
2019-03-12T00:50:23.691Z,96512.44
2019-03-12T00:52:55.291Z,96505.47
2019-03-12T00:55:27.009Z,96504.76
2019-03-12T00:57:58.691Z,96505.88
2019-03-12T01:00:30.513Z,96508.61
2019-03-12T01:03:02.271Z,96511.06
2019-03-12T01:05:34.067Z,96504.92
2019-03-12T01:08:05.801Z,96515.48
2019-03-12T01:10:37.451Z,96512.41
2019-03-12T01:13:21.612Z,96511.30
2019-03-12T01:15:54.556Z,96515.14
2019-03-12T01:18:26.415Z,96517.70
2019-03-12T01:20:58.107Z,96524.38
2019-03-12T01:23:30.041Z,96515.39
2019-03-12T01:26:01.754Z,96531.89
2019-03-12T01:28:33.446Z,96525.52
2019-03-12T01:31:05.268Z,96529.89
2019-03-12T01:33:36.896Z,96534.55
2019-03-12T01:36:08.625Z,96540.36
2019-03-12T01:38:40.293Z,96544.66
2019-03-12T01:41:12.030Z,96530.69
2019-03-12T01:43:43.844Z,96547.03
2019-03-12T01:46:17.969Z,96549.80
2019-03-12T01:48:49.733Z,96550.77
2019-03-12T01:51:21.252Z,96560.73
2019-03-12T01:53:52.878Z,96559.03
2019-03-12T01:56:24.572Z,96560.77
2019-03-12T01:58:57.861Z,96564.41
2019-03-12T02:01:29.654Z,96570.00
2019-03-12T02:04:01.364Z,96566.02
2019-03-12T02:06:34.314Z,96566.31
2019-03-12T02:09:09.119Z,96559.75
2019-03-12T02:11:40.861Z,96571.86
2019-03-12T02:14:29.648Z,96585.06
2019-03-12T02:17:01.330Z,96593.09
2019-03-12T02:19:33.085Z,96601.85
2019-03-12T02:22:04.938Z,96599.26
2019-03-12T02:24:36.783Z,96601.63
2019-03-12T02:27:08.492Z,96588.73
2019-03-12T02:29:40.410Z,96584.09
2019-03-12T02:32:12.103Z,96573.23
2019-03-12T02:34:43.926Z,96582.75
2019-03-12T02:37:15.799Z,96588.70
2019-03-12T02:39:47.879Z,96602.03
2019-03-12T02:42:20.404Z,96605.36
2019-03-12T02:44:52.232Z,96607.00
2019-03-12T02:47:23.981Z,96613.03
2019-03-12T02:49:55.666Z,96610.64
2019-03-12T02:52:27.522Z,96617.05
2019-03-12T02:54:59.182Z,96625.83
2019-03-12T02:57:31.389Z,96624.10
2019-03-12T03:00:03.103Z,96632.53
2019-03-12T03:02:35.095Z,96634.16
2019-03-12T03:05:07.040Z,96629.33
2019-03-12T03:07:51.087Z,96631.70
2019-03-12T03:10:23.214Z,96624.55
2019-03-12T03:12:54.917Z,96625.36
2019-03-12T03:15:29.795Z,96623.81
2019-03-12T03:18:01.862Z,96621.07
2019-03-12T03:20:33.761Z,96611.56
2019-03-12T03:23:05.390Z,96619.41
2019-03-12T03:25:39.244Z,96624.42
2019-03-12T03:28:11.037Z,96623.63
2019-03-12T03:30:42.713Z,96629.81
2019-03-12T03:33:14.598Z,96624.29
2019-03-12T03:35:46.420Z,96621.92
2019-03-12T03:38:18.092Z,96625.09
2019-03-12T03:40:49.887Z,96623.30
2019-03-12T03:43:21.644Z,96619.14
2019-03-12T03:45:54.844Z,96612.75
2019-03-12T03:48:26.626Z,96611.09
2019-03-12T03:50:58.335Z,96606.68
2019-03-12T03:53:29.984Z,96609.39
2019-03-12T03:56:01.764Z,96612.40
2019-03-12T03:58:33.613Z,96605.66
2019-03-12T04:01:05.343Z,96601.47
2019-03-12T04:03:37.046Z,96600.64
2019-03-12T04:06:08.896Z,96596.35
2019-03-12T04:08:42.233Z,96600.70
2019-03-12T04:11:14.013Z,96602.10
2019-03-12T04:13:45.789Z,96595.72
2019-03-12T04:16:17.750Z,96590.41
2019-03-12T04:18:49.753Z,96593.13
2019-03-12T04:21:21.675Z,96597.56
2019-03-12T04:23:56.157Z,96598.94
2019-03-12T04:26:28.835Z,96593.43
2019-03-12T04:29:00.678Z,96585.72
2019-03-12T04:31:32.538Z,96583.80
2019-03-12T04:34:22.459Z,96590.14
2019-03-12T04:36:54.627Z,96581.89
2019-03-12T04:39:26.519Z,96582.70
2019-03-12T04:41:58.344Z,96579.27
2019-03-12T04:44:30.272Z,96572.29
2019-03-12T04:47:02.127Z,96562.57
2019-03-12T04:49:33.974Z,96560.54
2019-03-12T04:52:05.722Z,96564.02
2019-03-12T04:54:37.614Z,96584.85
2019-03-12T04:57:09.716Z,96603.47
2019-03-12T04:59:41.626Z,96600.27
2019-03-12T05:02:13.316Z,96611.81
2019-03-12T05:04:45.408Z,96609.56
2019-03-12T05:07:17.860Z,96614.91
2019-03-12T05:09:49.911Z,96611.72
2019-03-12T05:12:21.765Z,96616.89
2019-03-12T05:14:53.640Z,96598.54
2019-03-12T05:17:30.978Z,96598.12
2019-03-12T05:20:03.277Z,96618.64
2019-03-12T05:22:35.227Z,96622.64
2019-03-12T05:25:10.304Z,96612.94
2019-03-12T05:27:42.568Z,96616.86
2019-03-12T05:30:16.572Z,96625.13
2019-03-12T05:32:48.476Z,96636.94
2019-03-12T05:35:20.752Z,96629.28
2019-03-12T05:37:53.378Z,96632.11
2019-03-12T05:40:25.782Z,96629.67
2019-03-12T05:42:57.675Z,96629.38
2019-03-12T05:45:29.912Z,96635.69
2019-03-12T05:48:01.712Z,96637.27
2019-03-12T05:50:33.457Z,96649.25
2019-03-12T05:53:15.373Z,96643.33
2019-03-12T05:55:47.101Z,96637.39
2019-03-12T05:58:18.795Z,96645.58
2019-03-12T06:00:50.670Z,96654.05
2019-03-12T06:03:22.498Z,96669.06
2019-03-12T06:05:54.375Z,96664.49
2019-03-12T06:08:26.302Z,96674.75
2019-03-12T06:10:58.227Z,96672.06
2019-03-12T06:13:29.940Z,96677.03
2019-03-12T06:16:01.888Z,96675.90
2019-03-12T06:18:33.595Z,96682.36
2019-03-12T06:21:05.407Z,96685.80
2019-03-12T06:23:39.263Z,96687.16
2019-03-12T06:26:11.148Z,96695.48
2019-03-12T06:28:44.151Z,96702.69
2019-03-12T06:31:46.589Z,96709.98
2019-03-12T06:34:27.082Z,96720.41
2019-03-12T06:37:14.361Z,96731.20
2019-03-12T06:40:04.264Z,96730.23
2019-03-12T06:42:49.383Z,96744.66
2019-03-12T06:45:40.548Z,96749.02
2019-03-12T06:48:40.191Z,96747.05
2019-03-12T06:51:27.839Z,96756.28
2019-03-12T06:54:20.098Z,96753.64
2019-03-12T06:57:16.170Z,96758.30
2019-03-12T07:00:11.546Z,96769.66
2019-03-12T07:03:10.563Z,96769.48
2019-03-12T07:05:54.061Z,96772.13
2019-03-12T07:08:43.676Z,96772.27
2019-03-12T07:11:37.205Z,96772.73
2019-03-12T07:14:17.549Z,96774.81
2019-03-12T07:17:15.344Z,96791.63
2019-03-12T07:20:04.839Z,96808.83
2019-03-12T07:23:08.643Z,96821.77
2019-03-12T07:26:02.683Z,96825.20
2019-03-12T07:28:50.777Z,96822.79
2019-03-12T07:32:02.901Z,96825.51
2019-03-12T07:34:55.602Z,96829.03
2019-03-12T07:37:45.478Z,96825.64
2019-03-12T07:40:37.836Z,96828.70
2019-03-12T07:43:35.066Z,96838.08
2019-03-12T07:46:33.918Z,96845.22
2019-03-12T07:49:30.081Z,96841.80
2019-03-12T07:52:21.589Z,96856.48
2019-03-12T07:55:23.561Z,96847.44
2019-03-12T07:58:15.918Z,96862.45
2019-03-12T08:01:09.717Z,96864.99
2019-03-12T08:04:17.078Z,96874.44
2019-03-12T08:07:03.843Z,96872.80
2019-03-12T08:09:56.549Z,96873.30
2019-03-12T08:12:41.209Z,96868.24
2019-03-12T08:15:35.289Z,96859.52
2019-03-12T08:18:28.163Z,96864.34
2019-03-12T08:21:23.150Z,96872.94
2019-03-12T08:24:13.969Z,96880.95
2019-03-12T08:27:01.180Z,96896.46
2019-03-12T08:30:00.680Z,96909.17
2019-03-12T08:32:55.646Z,96902.72
2019-03-12T08:36:01.806Z,96896.70
2019-03-12T08:38:46.578Z,96899.52
2019-03-12T08:41:36.177Z,96884.89
2019-03-12T08:44:26.756Z,96876.39
2019-03-12T08:47:07.148Z,96874.91
2019-03-12T08:49:56.894Z,96889.36
2019-03-12T08:53:00.202Z,96887.64
2019-03-12T08:56:01.933Z,96885.30
2019-03-12T08:59:03.732Z,96910.80
2019-03-12T09:02:07.749Z,96914.39
2019-03-12T09:05:04.985Z,96912.52
2019-03-12T09:07:52.387Z,96904.33
2019-03-12T09:10:47.128Z,96901.91
2019-03-12T09:13:38.393Z,96907.64
2019-03-12T09:16:17.590Z,96932.88
2019-03-12T09:19:16.706Z,96941.05
2019-03-12T09:22:02.698Z,96942.23
2019-03-12T09:24:53.447Z,96939.65
2019-03-12T09:27:47.758Z,96939.44
2019-03-12T09:30:39.823Z,96939.98
2019-03-12T09:33:44.987Z,96947.17
2019-03-12T09:36:39.534Z,96942.77
2019-03-12T09:39:33.583Z,96958.11
2019-03-12T09:42:33.913Z,96961.31
2019-03-12T09:45:38.128Z,96962.28
2019-03-12T09:48:26.721Z,96969.65
2019-03-12T09:51:08.584Z,96965.02
2019-03-12T09:54:05.203Z,96972.89
2019-03-12T09:56:55.754Z,96978.72
2019-03-12T09:59:47.773Z,96993.36
2019-03-12T10:02:40.625Z,96989.93
2019-03-12T10:05:31.223Z,96982.94
2019-03-12T10:08:24.490Z,96984.97
2019-03-12T10:11:01.691Z,96999.49
2019-03-12T10:13:54.561Z,96988.97
2019-03-12T10:16:54.720Z,96985.05
2019-03-12T10:19:39.038Z,96991.54
2019-03-12T10:22:25.820Z,97010.47
2019-03-12T10:25:17.108Z,97015.70
2019-03-12T10:28:01.158Z,97027.32
2019-03-12T10:30:50.898Z,97044.75
2019-03-12T10:33:58.659Z,97044.23
2019-03-12T10:36:55.001Z,97054.04
2019-03-12T10:39:56.701Z,97044.14
2019-03-12T10:42:39.771Z,97044.03
2019-03-12T10:45:20.650Z,97040.72
2019-03-12T10:47:55.599Z,97047.11
2019-03-12T10:50:32.091Z,97049.66
2019-03-12T10:53:07.088Z,97053.17
2019-03-12T10:55:41.300Z,97043.68
2019-03-12T10:58:16.462Z,97042.17
2019-03-12T11:00:50.251Z,97050.34
2019-03-12T11:03:25.024Z,97042.48
2019-03-12T11:05:59.408Z,97036.06
2019-03-12T11:08:34.041Z,97039.98
2019-03-12T11:11:08.163Z,97038.78
2019-03-12T11:13:42.612Z,97036.63
2019-03-12T11:16:16.264Z,97045.12
2019-03-12T11:18:51.455Z,97036.02
2019-03-12T11:21:25.493Z,97024.97
2019-03-12T11:23:58.020Z,97021.50
2019-03-12T11:26:32.000Z,97021.69
2019-03-12T11:29:07.540Z,97020.05
2019-03-12T11:31:42.882Z,97019.64
2019-03-12T11:34:17.106Z,97016.53
2019-03-12T11:36:51.259Z,97018.92
2019-03-12T11:39:25.981Z,97033.52
2019-03-12T11:42:00.282Z,97030.14
2019-03-12T11:44:35.172Z,97049.38
2019-03-12T11:47:09.074Z,97047.27
2019-03-12T11:49:43.436Z,97057.05
2019-03-12T11:52:18.121Z,97048.42
2019-03-12T11:54:52.838Z,97065.55
2019-03-12T11:57:27.294Z,97075.77
2019-03-12T12:00:01.911Z,97073.89
2019-03-12T12:02:35.922Z,97065.55
2019-03-12T12:05:09.420Z,97067.66
2019-03-12T12:07:42.613Z,97078.67
2019-03-12T12:10:18.202Z,97082.23
2019-03-12T12:12:52.877Z,97079.14
2019-03-12T12:15:27.061Z,97087.13
2019-03-12T12:18:01.980Z,97091.31
2019-03-12T12:20:36.045Z,97094.23
2019-03-12T12:23:10.548Z,97087.33
2019-03-12T12:25:42.970Z,97103.17
2019-03-12T12:28:15.344Z,97105.88
2019-03-12T12:30:48.280Z,97102.21
2019-03-12T12:33:20.698Z,97109.95
2019-03-12T12:35:54.399Z,97105.39
2019-03-12T12:38:28.472Z,97098.67
2019-03-12T12:41:02.501Z,97098.63
2019-03-12T12:43:34.890Z,97099.23
2019-03-12T12:46:07.393Z,97101.38
2019-03-12T12:48:39.718Z,97099.97
2019-03-12T12:51:13.501Z,97098.77
2019-03-12T12:53:47.851Z,97117.47
2019-03-12T12:56:20.185Z,97117.14
2019-03-12T12:58:53.021Z,97109.11
2019-03-12T13:01:25.767Z,97107.91
2019-03-12T13:03:57.867Z,97102.63
2019-03-12T13:06:30.100Z,97103.11
2019-03-12T13:09:02.466Z,97096.29
2019-03-12T13:11:36.304Z,97093.95
2019-03-12T13:14:08.736Z,97090.36
2019-03-12T13:16:43.054Z,97081.41
2019-03-12T13:19:16.974Z,97079.69
2019-03-12T13:21:49.386Z,97076.06
2019-03-12T13:24:21.854Z,97064.25
2019-03-12T13:26:54.176Z,97067.64
2019-03-12T13:29:26.983Z,97074.87
2019-03-12T13:32:12.663Z,97067.41
2019-03-12T13:34:35.375Z,97075.76
2019-03-12T13:37:09.095Z,97069.75
2019-03-12T13:39:41.425Z,97070.73
2019-03-12T13:42:13.766Z,97067.49
2019-03-12T13:44:48.917Z,97064.00
2019-03-12T13:47:21.721Z,97049.81
2019-03-12T13:49:55.546Z,97055.15
2019-03-12T13:52:27.782Z,97048.89
2019-03-12T13:55:01.968Z,97048.91
2019-03-12T13:57:35.335Z,97056.06
2019-03-12T14:00:11.314Z,97055.98
2019-03-12T14:02:43.978Z,97061.16
2019-03-12T14:05:17.856Z,97067.02
2019-03-12T14:07:50.476Z,97068.44
2019-03-12T14:10:23.765Z,97077.61
2019-03-12T14:12:56.665Z,97073.02
2019-03-12T14:15:30.754Z,97086.95
2019-03-12T14:18:03.986Z,97095.81
2019-03-12T14:20:44.771Z,97098.06
2019-03-12T14:23:20.737Z,97103.26
2019-03-12T14:25:53.799Z,97126.32
2019-03-12T14:28:26.526Z,97131.20
2019-03-12T14:30:59.177Z,97121.02
2019-03-12T14:33:33.199Z,97122.98
2019-03-12T14:36:06.189Z,97122.22
2019-03-12T14:38:38.692Z,97122.70
2019-03-12T14:41:11.500Z,97126.63
2019-03-12T14:43:47.004Z,97131.94
2019-03-12T14:46:21.985Z,97128.95
2019-03-12T14:48:56.425Z,97133.09
2019-03-12T14:51:41.517Z,97133.85
2019-03-12T14:54:14.000Z,97129.78
2019-03-12T14:56:46.711Z,97130.06
2019-03-12T14:59:19.258Z,97127.55
2019-03-12T15:04:32.858Z,97131.94
2019-03-12T15:07:05.399Z,97127.23
2019-03-12T15:09:37.615Z,97122.64
2019-03-12T15:12:11.911Z,97121.36
2019-03-12T15:14:44.165Z,97126.48
2019-03-12T15:17:16.495Z,97122.28
2019-03-12T15:20:30.725Z,97117.30
2019-03-12T15:23:03.438Z,97129.55
2019-03-12T15:25:40.585Z,97132.11
2019-03-12T15:58:52.756Z,97172.41
2019-03-12T16:01:27.196Z,97167.95
2019-03-12T16:03:59.667Z,97167.20
2019-03-12T16:06:32.195Z,97173.63
2019-03-12T16:09:08.953Z,97196.23
2019-03-12T16:11:42.301Z,97195.52
2019-03-12T16:14:14.842Z,97203.58
2019-03-12T16:16:47.287Z,97209.84
2019-03-12T16:19:20.210Z,97221.45
2019-03-12T16:21:52.662Z,97226.15
2019-03-12T16:24:25.092Z,97228.78
2019-03-12T16:27:27.958Z,97242.12
2019-03-12T16:30:30.585Z,97242.00
2019-03-12T16:36:17.581Z,97244.86
2019-03-12T16:38:49.931Z,97243.28
2019-03-12T16:41:22.228Z,97249.52
2019-03-12T16:43:56.089Z,97255.89
2019-03-12T16:46:29.419Z,97269.06
2019-03-12T16:49:02.013Z,97269.38
2019-03-12T16:51:34.778Z,97275.19
2019-03-12T16:54:07.409Z,97278.17
2019-03-12T16:56:45.568Z,97283.03
2019-03-12T16:59:17.534Z,97283.88
2019-03-12T17:01:51.639Z,97284.71
2019-03-12T17:04:24.928Z,97285.34
2019-03-12T17:06:57.508Z,97291.55
2019-03-12T17:09:31.418Z,97305.19
2019-03-12T17:12:04.590Z,97304.75
2019-03-12T17:14:39.072Z,97308.14
2019-03-12T17:17:12.610Z,97309.53
2019-03-12T17:19:45.419Z,97298.48
2019-03-12T17:22:18.132Z,97310.55
2019-03-12T17:24:52.488Z,97316.83
2019-03-12T17:27:25.288Z,97324.08
2019-03-12T17:29:58.533Z,97319.92
2019-03-12T17:32:31.126Z,97320.76
2019-03-12T17:35:05.394Z,97325.97
2019-03-12T17:37:39.167Z,97329.05
2019-03-12T17:40:17.774Z,97327.40
2019-03-12T17:42:56.644Z,97336.70
2019-03-12T17:45:31.844Z,97333.13
2019-03-12T17:48:11.562Z,97328.92
2019-03-12T17:50:52.272Z,97330.75
2019-03-12T17:53:29.712Z,97331.81
2019-03-12T17:56:05.092Z,97329.44
2019-03-12T17:58:45.462Z,97328.78
2019-03-12T18:01:30.238Z,97329.30
2019-03-12T18:04:08.183Z,97342.38
2019-03-12T18:06:49.122Z,97338.83
2019-03-12T18:09:34.962Z,97338.22
2019-03-12T18:12:19.092Z,97346.57
2019-03-12T18:15:02.467Z,97346.98
2019-03-12T18:17:45.352Z,97344.86
2019-03-12T18:20:17.953Z,97337.45
2019-03-12T18:22:50.752Z,97340.84
2019-03-12T18:25:25.931Z,97340.44
2019-03-12T18:27:59.976Z,97347.26
2019-03-12T18:30:32.500Z,97348.83
2019-03-12T18:33:04.808Z,97355.98
2019-03-12T18:35:37.194Z,97354.04
2019-03-12T18:38:09.474Z,97357.94
2019-03-12T18:40:41.857Z,97357.36
2019-03-12T18:43:15.117Z,97359.72
2019-03-12T18:45:49.546Z,97359.73
2019-03-12T18:48:22.038Z,97353.94
2019-03-12T18:50:54.668Z,97351.24
2019-03-12T18:53:27.249Z,97361.36
2019-03-12T18:56:03.010Z,97358.23
2019-03-12T18:58:35.370Z,97364.18
2019-03-12T19:01:12.640Z,97360.86
2019-03-12T19:03:45.441Z,97359.52
2019-03-12T19:06:17.910Z,97356.52
2019-03-12T19:08:50.433Z,97362.03
2019-03-12T19:11:24.271Z,97372.41
2019-03-12T19:13:56.674Z,97376.61
2019-03-12T19:16:29.350Z,97378.02
2019-03-12T19:19:01.911Z,97380.67
2019-03-12T19:21:34.889Z,97375.33
2019-03-12T19:24:08.484Z,97382.62
2019-03-12T19:26:41.073Z,97381.25
2019-03-12T19:29:13.582Z,97378.63
2019-03-12T19:31:58.042Z,97375.81
2019-03-12T19:34:36.804Z,97386.05
2019-03-12T19:37:10.163Z,97383.20
2019-03-12T19:39:43.022Z,97379.23
2019-03-12T19:42:16.206Z,97386.82
2019-03-12T19:44:49.271Z,97382.29
2019-03-12T19:47:21.853Z,97378.70
2019-03-12T19:49:54.433Z,97382.97
2019-03-12T19:52:26.983Z,97391.53
2019-03-12T19:54:59.582Z,97396.30
2019-03-12T19:57:32.738Z,97399.55
2019-03-12T20:00:06.285Z,97403.02
2019-03-12T20:02:40.372Z,97407.81
2019-03-12T20:05:13.492Z,97396.33
2019-03-12T20:07:46.343Z,97403.78
2019-03-12T20:11:01.063Z,97403.31
2019-03-12T20:14:19.653Z,97410.63
2019-03-12T20:17:27.234Z,97411.58
2019-03-12T20:20:42.158Z,97416.28
2019-03-12T20:23:59.001Z,97415.33
2019-03-12T20:27:17.089Z,97410.06
2019-03-12T20:30:29.091Z,97407.48
2019-03-12T20:33:55.078Z,97401.77
2019-03-12T20:37:06.389Z,97402.03
2019-03-12T20:40:13.302Z,97382.62
2019-03-12T20:43:21.786Z,97376.75
2019-03-12T20:46:41.138Z,97394.56
2019-03-12T20:49:45.831Z,97406.80
2019-03-12T20:53:09.585Z,97406.83
2019-03-12T20:56:26.586Z,97407.94
2019-03-12T20:59:47.097Z,97409.20
2019-03-12T21:02:55.349Z,97416.84
2019-03-12T21:06:17.789Z,97412.14
2019-03-12T21:09:22.263Z,97408.44
2019-03-12T21:13:02.071Z,97415.03
2019-03-12T21:16:18.898Z,97416.73
2019-03-12T21:19:45.259Z,97417.02
2019-03-12T21:22:52.313Z,97410.20
2019-03-12T21:25:50.507Z,97409.70
2019-03-12T21:28:53.273Z,97409.22
2019-03-12T21:31:25.515Z,97410.10
2019-03-12T21:33:58.029Z,97404.96
2019-03-12T21:36:32.770Z,97403.92
2019-03-12T21:39:06.489Z,97396.37
2019-03-12T21:41:40.381Z,97396.13
2019-03-12T21:44:13.822Z,97397.58
2019-03-12T21:46:46.294Z,97405.20
2019-03-12T21:49:18.654Z,97407.24
2019-03-12T21:51:51.288Z,97403.89
2019-03-12T21:54:23.612Z,97401.17
2019-03-12T21:56:55.812Z,97401.80
2019-03-12T21:59:28.132Z,97396.23
2019-03-12T22:02:04.953Z,97395.30
2019-03-12T22:04:37.237Z,97395.42
2019-03-12T22:07:09.351Z,97393.25
2019-03-12T22:09:41.769Z,97397.20
2019-03-12T22:12:14.155Z,97390.69
2019-03-12T22:14:46.495Z,97394.69
2019-03-12T22:17:22.155Z,97399.98
2019-03-12T22:19:54.467Z,97398.48
2019-03-12T22:22:47.476Z,97397.44
2019-03-12T22:25:19.743Z,97395.22
2019-03-12T22:27:54.861Z,97395.26
2019-03-12T22:30:30.174Z,97399.98
2019-03-12T22:33:04.121Z,97396.03
2019-03-12T22:35:36.573Z,97400.70
2019-03-12T22:38:10.885Z,97401.80
2019-03-12T22:40:44.925Z,97402.24
2019-03-12T22:43:19.081Z,97406.58
2019-03-12T22:45:53.121Z,97409.56
2019-03-12T22:48:29.286Z,97411.00
2019-03-12T22:51:03.913Z,97415.20
2019-03-12T22:53:40.591Z,97420.14
2019-03-12T22:56:15.435Z,97414.94
2019-03-12T22:58:47.905Z,97415.54
2019-03-12T23:01:38.321Z,97423.94
2019-03-12T23:04:30.386Z,97424.33
2019-03-12T23:07:22.655Z,97420.77
2019-03-12T23:09:59.093Z,97418.95
2019-03-12T23:12:35.117Z,97410.39
2019-03-12T23:15:09.038Z,97417.13
2019-03-12T23:17:45.363Z,97418.82
2019-03-12T23:20:21.059Z,97423.20
2019-03-12T23:22:55.476Z,97429.14
2019-03-12T23:25:29.772Z,97426.66
2019-03-12T23:28:04.337Z,97427.31
2019-03-12T23:30:38.788Z,97423.83
2019-03-12T23:33:13.430Z,97418.00
2019-03-12T23:35:49.363Z,97418.39
2019-03-12T23:38:23.653Z,97413.85
2019-03-12T23:41:03.149Z,97409.46
2019-03-12T23:43:35.466Z,97407.41
2019-03-12T23:46:07.871Z,97408.69
2019-03-12T23:48:41.975Z,97404.65
2019-03-12T23:51:18.479Z,97409.19
2019-03-12T23:53:52.771Z,97408.13
2019-03-12T23:56:27.185Z,97410.08
2019-03-12T23:59:01.850Z,97401.58
